
Distance (Route):
Temperature : -55.5°C
Humidity : 1.5%
Pressure : -1.0hPa| Receiver | Frames | First received | Last received |
|---|---|---|---|
| DJ2DS-15 | 95 | 2026-09-06 00:36:51 | 2026-09-06 01:06:22 |
| Receiver | Date | Latitude | Longitude | Direction | Speed | Altitude | Climb | Temperature | Humidity | Pressure | Voltage | Killtimer | Uptime | BKT | XDATA |
|---|---|---|---|---|---|---|---|---|---|---|---|---|---|---|---|
| DJ2DS-15 | 2026-09-06 01:06:22 | 54.93284 | -0.25496 | 97° | 55km/h | 16905m | -9.7m/s | -55.5°C | 1.5% | -1.0hPa | 2.5V | 00:00:00 | 00:00:00 | 00:00:00 | |
| DJ2DS-15 | 2026-09-06 01:05:46 | 54.93355 | -0.26425 | 95° | 42km/h | 17303m | -8.9m/s | -55.5°C | 1.5% | -1.0hPa | 2.5V | 00:00:00 | 00:00:00 | 00:00:00 | |
| DJ2DS-15 | 2026-09-06 01:04:21 | 54.93463 | -0.27901 | 86° | 40km/h | 18052m | -10.1m/s | -54.6°C | 4.6% | 0hPa | 2.5V | 08:20:00 | 02:15:14 | 00:00:00 | |
| DJ2DS-15 | 2026-09-06 01:03:58 | 54.93427 | -0.28319 | 73° | 47km/h | 18326m | -11.9m/s | -53.9°C | 1.3% | -1.0hPa | 2.5V | 00:00:00 | 00:00:00 | 00:00:00 | |
| DJ2DS-15 | 2026-09-06 01:03:40 | 54.93375 | -0.28701 | 73° | 58km/h | 18535m | -12.6m/s | -53.9°C | 4.3% | 0hPa | 2.5V | 00:00:00 | 02:14:33 | 00:00:00 | |
| DJ2DS-15 | 2026-09-06 01:03:22 | 54.93341 | -0.29178 | 80° | 55km/h | 18789m | -12.7m/s | -54.8°C | 1.4% | -1.0hPa | 2.5V | 00:00:00 | 00:00:00 | 00:00:00 | |
| DJ2DS-15 | 2026-09-06 01:03:19 | 54.93336 | -0.29226 | 81° | 51km/h | 18814m | -12.4m/s | -54.9°C | 4.7% | 0hPa | 2.5V | 00:00:00 | 02:14:12 | 00:00:00 | |
| DJ2DS-15 | 2026-09-06 01:02:58 | 54.93300 | -0.29684 | 86° | 44km/h | 19107m | -12.7m/s | -54.5°C | 4.5% | 0hPa | 2.6V | 00:00:00 | 02:13:51 | 00:00:00 | |
| DJ2DS-15 | 2026-09-06 01:02:38 | 54.93321 | -0.30069 | 99° | 46km/h | 19387m | -14.9m/s | -55.1°C | 4.8% | 0hPa | 2.6V | 00:00:00 | 02:13:31 | 00:00:00 | |
| DJ2DS-15 | 2026-09-06 01:02:18 | 54.93369 | -0.30450 | 96° | 44km/h | 19673m | -14.6m/s | -54.1°C | 4.7% | 0hPa | 2.6V | 00:00:00 | 02:13:11 | 00:00:00 | |
| DJ2DS-15 | 2026-09-06 01:01:58 | 54.93392 | -0.30830 | 96° | 42km/h | 19988m | -16.6m/s | -52.9°C | 4.5% | 0hPa | 2.5V | 00:00:00 | 02:12:51 | 00:00:00 | |
| DJ2DS-15 | 2026-09-06 01:01:38 | 54.93413 | -0.31196 | 90° | 29km/h | 20295m | -15.7m/s | -50.9°C | 3.8% | 0hPa | 2.5V | 00:00:00 | 02:12:31 | 00:00:00 | |
| DJ2DS-15 | 2026-09-06 01:01:33 | 54.93419 | -0.31262 | 113° | 24km/h | 20372m | -15.4m/s | -50.6°C | 1.1% | -1.0hPa | 2.5V | 00:00:00 | 00:00:00 | 00:00:00 | |
| DJ2DS-15 | 2026-09-06 01:01:18 | 54.93462 | -0.31439 | 116° | 31km/h | 20617m | -16.1m/s | -51.2°C | 3.9% | 0hPa | 2.5V | 08:23:00 | 02:12:11 | 00:00:00 | |
| DJ2DS-15 | 2026-09-06 01:00:58 | 54.93542 | -0.31675 | 129° | 20km/h | 20940m | -15.6m/s | -51.3°C | 4.0% | 0hPa | 2.6V | 00:00:00 | 02:11:51 | 00:00:00 | |
| DJ2DS-15 | 2026-09-06 01:00:38 | 54.93616 | -0.31780 | 126° | 16km/h | 21273m | -16.4m/s | -50.9°C | 3.7% | 0hPa | 2.6V | 00:00:00 | 02:11:31 | 00:00:00 | |
| DJ2DS-15 | 2026-09-06 01:00:21 | 54.93584 | -0.31878 | 51° | 24km/h | 21558m | -17.0m/s | -52.6°C | 1.1% | -1.0hPa | 2.6V | 00:00:00 | 00:00:00 | 00:00:00 | |
| DJ2DS-15 | 2026-09-06 01:00:18 | 54.93572 | -0.31908 | 58° | 42km/h | 21610m | -17.6m/s | -52.9°C | 4.2% | 0hPa | 2.6V | 00:00:00 | 02:11:11 | 00:00:00 | |
| DJ2DS-15 | 2026-09-06 00:59:45 | 54.93502 | -0.32493 | 99° | 40km/h | 22180m | -18.0m/s | -52.6°C | 1.2% | -1.0hPa | 2.5V | 00:00:00 | 00:00:00 | 00:00:00 | |
| DJ2DS-15 | 2026-09-06 00:59:38 | 54.93519 | -0.32610 | 107° | 20km/h | 22309m | -17.8m/s | -51.8°C | 4.1% | 0hPa | 2.5V | 00:00:00 | 02:10:31 | 00:00:00 | |
| DJ2DS-15 | 2026-09-06 00:59:18 | 54.93530 | -0.32772 | 44° | 16km/h | 22666m | -16.2m/s | -51.7°C | 4.0% | 0hPa | 2.5V | 00:00:00 | 02:10:11 | 00:00:00 | |
| DJ2DS-15 | 2026-09-06 00:58:58 | 54.93509 | -0.32921 | 95° | 29km/h | 23008m | -16.8m/s | -52.2°C | 4.2% | 0hPa | 2.5V | 00:00:00 | 02:09:51 | 00:00:00 | |
| DJ2DS-15 | 2026-09-06 00:58:38 | 54.93541 | -0.33179 | 120° | 22km/h | 23351m | -19.6m/s | -52.5°C | 4.3% | 0hPa | 2.5V | 00:00:00 | 02:09:31 | 00:00:00 | |
| DJ2DS-15 | 2026-09-06 00:58:33 | 54.93564 | -0.33239 | 124° | 24km/h | 23448m | -19.0m/s | -52.1°C | 1.2% | -1.0hPa | 2.5V | 00:00:00 | 00:00:00 | 00:00:00 | |
| DJ2DS-15 | 2026-09-06 00:58:18 | 54.93604 | -0.33339 | 108° | 27km/h | 23748m | -20.8m/s | -52.6°C | 4.5% | 0hPa | 2.5V | 08:26:00 | 02:09:11 | 00:00:00 | |
| DJ2DS-15 | 2026-09-06 00:57:57 | 54.93701 | -0.33507 | 167° | 20km/h | 24221m | -24.9m/s | -51.0°C | 1.1% | -1.0hPa | 2.5V | 00:00:00 | 00:00:00 | 00:00:00 | |
| DJ2DS-15 | 2026-09-06 00:57:38 | 54.93738 | -0.33553 | 57° | 22km/h | 24667m | -24.0m/s | -51.3°C | 3.9% | 0hPa | 2.5V | 00:00:00 | 02:08:31 | 00:00:00 | |
| DJ2DS-15 | 2026-09-06 00:57:18 | 54.93750 | -0.33751 | 114° | 35km/h | 25129m | -24.6m/s | -51.6°C | 4.3% | 0hPa | 2.5V | 00:00:00 | 02:08:11 | 00:00:00 | |
| DJ2DS-15 | 2026-09-06 00:56:58 | 54.93864 | -0.33934 | 101° | 27km/h | 25620m | -26.9m/s | -50.5°C | 4.0% | 0hPa | 2.5V | 00:00:00 | 02:07:51 | 00:00:00 | |
| DJ2DS-15 | 2026-09-06 00:56:38 | 54.93947 | -0.34136 | 136° | 26km/h | 26106m | -24.4m/s | -49.0°C | 3.8% | 0hPa | 2.5V | 00:00:00 | 02:07:31 | 00:00:00 | |
| DJ2DS-15 | 2026-09-06 00:56:09 | 54.94091 | -0.34253 | 231° | 7km/h | 26849m | -26.6m/s | -48.0°C | 0.9% | -1.0hPa | 2.5V | 00:00:00 | 00:00:00 | 00:00:00 | |
| DJ2DS-15 | 2026-09-06 00:55:58 | 54.94077 | -0.34262 | 45° | 20km/h | 27160m | -29.1m/s | -47.6°C | 3.4% | 0hPa | 2.5V | 00:00:00 | 02:06:51 | 00:00:00 | |
| DJ2DS-15 | 2026-09-06 00:55:38 | 54.94057 | -0.34422 | 118° | 20km/h | 27739m | -29.5m/s | -48.1°C | 3.5% | 0hPa | 2.5V | 00:00:00 | 02:06:31 | 00:00:00 | |
| DJ2DS-15 | 2026-09-06 00:55:18 | 54.94050 | -0.34603 | 91° | 33km/h | 28339m | -34.6m/s | -48.2°C | 3.6% | 0hPa | 2.5V | 00:00:00 | 02:06:11 | 08:30:00 | |
| DJ2DS-15 | 2026-09-06 00:54:58 | 54.94131 | -0.34845 | 113° | 22km/h | 29041m | -36.6m/s | -47.5°C | 3.8% | 0hPa | 2.5V | 00:00:00 | 02:05:51 | 00:00:00 | |
| DJ2DS-15 | 2026-09-06 00:54:38 | 54.94228 | -0.34917 | 186° | 31km/h | 29781m | -5.4m/s | -46.2°C | 3.2% | 0hPa | 2.5V | 00:00:00 | 02:05:31 | 00:00:00 | |
| DJ2DS-15 | 2026-09-06 00:54:21 | 54.94364 | -0.34913 | 182° | 31km/h | 29678m | 5.7m/s | -46.3°C | 0.9% | -1.0hPa | 2.5V | 00:00:00 | 00:00:00 | 00:00:00 | |
| DJ2DS-15 | 2026-09-06 00:54:18 | 54.94379 | -0.34916 | 164° | 33km/h | 29665m | 7.0m/s | -46.2°C | 3.3% | 0hPa | 2.5V | 00:00:00 | 02:05:11 | 00:00:00 | |
| DJ2DS-15 | 2026-09-06 00:53:58 | 54.94531 | -0.35013 | 156° | 29km/h | 29537m | 5.7m/s | -45.6°C | 3.2% | 0hPa | 2.6V | 00:00:00 | 02:04:51 | 00:00:00 | |
| DJ2DS-15 | 2026-09-06 00:53:45 | 54.94618 | -0.35100 | 137° | 29km/h | 29448m | 7.1m/s | -45.4°C | 0.9% | -1.0hPa | 2.6V | 00:00:00 | 00:00:00 | 00:00:00 | |
| DJ2DS-15 | 2026-09-06 00:53:38 | 54.94653 | -0.35138 | 157° | 29km/h | 29410m | 5.9m/s | -45.2°C | 3.1% | 0hPa | 2.6V | 00:00:00 | 02:04:31 | 00:00:00 | |
| DJ2DS-15 | 2026-09-06 00:53:18 | 54.94786 | -0.35260 | 144° | 27km/h | 29285m | 5.6m/s | -45.0°C | 3.1% | 0hPa | 2.6V | 00:00:00 | 02:04:11 | 00:00:00 | |
| DJ2DS-15 | 2026-09-06 00:52:57 | 54.94879 | -0.35452 | 115° | 26km/h | 29159m | 5.1m/s | -45.6°C | 3.0% | 0hPa | 2.6V | 00:00:00 | 02:03:50 | 00:00:00 | |
| DJ2DS-15 | 2026-09-06 00:52:37 | 54.94946 | -0.35638 | 116° | 22km/h | 29046m | 4.9m/s | -46.9°C | 3.2% | 0hPa | 2.6V | 00:00:00 | 02:03:30 | 00:00:00 | |
| DJ2DS-15 | 2026-09-06 00:52:17 | 54.94992 | -0.35803 | 114° | 27km/h | 28938m | 5.2m/s | -47.8°C | 3.4% | 0hPa | 2.6V | 00:00:00 | 02:03:10 | 08:30:00 | |
| DJ2DS-15 | 2026-09-06 00:51:57 | 54.95109 | -0.35937 | 138° | 44km/h | 28836m | 5.5m/s | -48.3°C | 3.5% | 0hPa | 2.5V | 00:00:00 | 02:02:50 | 00:00:00 | |
| DJ2DS-15 | 2026-09-06 00:51:37 | 54.95258 | -0.36207 | 137° | 44km/h | 28737m | 4.5m/s | -48.7°C | 3.6% | 0hPa | 2.5V | 00:00:00 | 02:02:30 | 00:00:00 | |
| DJ2DS-15 | 2026-09-06 00:51:20 | 54.95365 | -0.36468 | 120° | 40km/h | 28653m | 5.1m/s | -48.7°C | 1.0% | -1.0hPa | 2.5V | 00:00:00 | 00:00:00 | 00:00:00 | |
| DJ2DS-15 | 2026-09-06 00:51:17 | 54.95377 | -0.36517 | 110° | 37km/h | 28639m | 5.5m/s | -48.7°C | 3.6% | 0hPa | 2.5V | 00:00:00 | 02:02:10 | 00:00:00 | |
| DJ2DS-15 | 2026-09-06 00:50:57 | 54.95439 | -0.36815 | 93° | 31km/h | 28538m | 4.9m/s | -48.5°C | 3.6% | 0hPa | 2.6V | 00:00:00 | 02:01:50 | 00:00:00 | |
| DJ2DS-15 | 2026-09-06 00:50:37 | 54.95476 | -0.37084 | 105° | 27km/h | 28436m | 4.2m/s | -48.4°C | 3.6% | 0hPa | 2.6V | 00:00:00 | 02:01:30 | 00:00:00 | |
| DJ2DS-15 | 2026-09-06 00:50:17 | 54.95459 | -0.37327 | 85° | 24km/h | 28329m | 5.4m/s | -48.4°C | 3.5% | 0hPa | 2.6V | 00:00:00 | 02:01:10 | 00:00:00 | |
| DJ2DS-15 | 2026-09-06 00:49:57 | 54.95432 | -0.37525 | 92° | 22km/h | 28218m | 6.3m/s | -48.4°C | 3.6% | 0hPa | 2.6V | 00:00:00 | 02:00:50 | 00:00:00 | |
| DJ2DS-15 | 2026-09-06 00:49:37 | 54.95399 | -0.37709 | 70° | 20km/h | 28107m | 6.3m/s | -48.2°C | 3.6% | 0hPa | 2.6V | 00:00:00 | 02:00:30 | 00:00:00 | |
| DJ2DS-15 | 2026-09-06 00:49:32 | 54.95399 | -0.37754 | 80° | 26km/h | 28079m | 5.6m/s | -48.1°C | 1.0% | -1.0hPa | 2.6V | 00:00:00 | 00:00:00 | 00:00:00 | |
| DJ2DS-15 | 2026-09-06 00:49:17 | 54.95384 | -0.37881 | 68° | 15km/h | 27994m | 5.6m/s | -47.8°C | 3.5% | 0hPa | 2.6V | 00:00:00 | 02:00:10 | 08:30:00 | |
| DJ2DS-15 | 2026-09-06 00:48:57 | 54.95388 | -0.37997 | 129° | 15km/h | 27880m | 4.9m/s | -47.5°C | 3.4% | 0hPa | 2.6V | 00:00:00 | 01:59:50 | 00:00:00 | |
| DJ2DS-15 | 2026-09-06 00:48:37 | 54.95408 | -0.38112 | 88° | 13km/h | 27771m | 6.1m/s | -47.9°C | 3.5% | 0hPa | 2.6V | 00:00:00 | 01:59:30 | 00:00:00 | |
| DJ2DS-15 | 2026-09-06 00:48:17 | 54.95444 | -0.38194 | 116° | 24km/h | 27663m | 5.8m/s | -47.8°C | 3.3% | 0hPa | 2.6V | 00:00:00 | 01:59:10 | 00:00:00 | |
| DJ2DS-15 | 2026-09-06 00:47:57 | 54.95484 | -0.38385 | 100° | 16km/h | 27558m | 5.0m/s | -49.1°C | 3.7% | 0hPa | 2.6V | 00:00:00 | 01:58:50 | 00:00:00 | |
| DJ2DS-15 | 2026-09-06 00:47:44 | 54.95482 | -0.38473 | 82° | 16km/h | 27488m | 5.0m/s | -49.1°C | 1.0% | -1.0hPa | 2.6V | 00:00:00 | 00:00:00 | 00:00:00 | |
| DJ2DS-15 | 2026-09-06 00:47:37 | 54.95486 | -0.38522 | 64° | 16km/h | 27451m | 4.9m/s | -49.2°C | 3.8% | 0hPa | 2.6V | 00:00:00 | 01:58:30 | 00:00:00 | |
| DJ2DS-15 | 2026-09-06 00:46:57 | 54.95420 | -0.38632 | 261° | 9km/h | 27228m | 5.6m/s | -48.5°C | 3.5% | 0hPa | 2.6V | 00:00:00 | 01:57:50 | 00:00:00 | |
| DJ2DS-15 | 2026-09-06 00:46:37 | 54.95414 | -0.38628 | 52° | 9km/h | 27114m | 5.0m/s | -49.4°C | 3.8% | 0hPa | 2.6V | 00:00:00 | 01:57:30 | 00:00:00 | |
| DJ2DS-15 | 2026-09-06 00:46:17 | 54.95413 | -0.38571 | 241° | 13km/h | 27002m | 6.4m/s | -48.9°C | 3.7% | 0hPa | 2.6V | 00:00:00 | 01:57:10 | 08:30:00 | |
| DJ2DS-15 | 2026-09-06 00:45:57 | 54.95461 | -0.38507 | 238° | 24km/h | 26888m | 3.7m/s | -48.9°C | 3.7% | 0hPa | 2.6V | 00:00:00 | 01:56:50 | 00:00:00 | |
| DJ2DS-15 | 2026-09-06 00:45:37 | 54.95578 | -0.38512 | 175° | 38km/h | 26772m | 6.7m/s | -48.6°C | 3.5% | 0hPa | 2.6V | 00:00:00 | 01:56:30 | 00:00:00 | |
| DJ2DS-15 | 2026-09-06 00:45:20 | 54.95744 | -0.38592 | 153° | 42km/h | 26665m | 7.2m/s | -49.0°C | 1.0% | -1.0hPa | 2.6V | 00:00:00 | 00:00:00 | 00:00:00 | |
| DJ2DS-15 | 2026-09-06 00:45:17 | 54.95761 | -0.38612 | 143° | 37km/h | 26653m | 4.7m/s | -49.0°C | 3.7% | 0hPa | 2.6V | 00:00:00 | 01:56:10 | 00:00:00 | |
| DJ2DS-15 | 2026-09-06 00:44:57 | 54.95930 | -0.38733 | 165° | 29km/h | 26540m | 6.6m/s | -48.9°C | 3.6% | 0hPa | 2.6V | 00:00:00 | 01:55:50 | 00:00:00 | |
| DJ2DS-15 | 2026-09-06 00:44:37 | 54.96067 | -0.38816 | 182° | 20km/h | 26432m | 4.8m/s | -49.1°C | 3.6% | 0hPa | 2.6V | 00:00:00 | 01:55:30 | 00:00:00 | |
| DJ2DS-15 | 2026-09-06 00:44:17 | 54.96149 | -0.38888 | 158° | 37km/h | 26326m | 5.1m/s | -49.8°C | 3.7% | 0hPa | 2.6V | 00:00:00 | 01:55:10 | 00:00:00 | |
| DJ2DS-15 | 2026-09-06 00:43:56 | 54.96291 | -0.39100 | 124° | 38km/h | 26216m | 6.1m/s | -50.7°C | 3.9% | 0hPa | 2.6V | 00:00:00 | 01:54:49 | 00:00:00 | |
| DJ2DS-15 | 2026-09-06 00:43:36 | 54.96423 | -0.39347 | 146° | 31km/h | 26113m | 5.1m/s | -51.1°C | 3.9% | 0hPa | 2.6V | 00:00:00 | 01:54:29 | 00:00:00 | |
| DJ2DS-15 | 2026-09-06 00:43:16 | 54.96521 | -0.39542 | 140° | 20km/h | 26009m | 4.7m/s | -52.1°C | 4.2% | 0hPa | 2.6V | 00:00:00 | 01:54:09 | 08:30:00 | |
| DJ2DS-15 | 2026-09-06 00:42:56 | 54.96555 | -0.39695 | 100° | 13km/h | 25902m | 6.1m/s | -52.1°C | 4.3% | 0hPa | 2.6V | 00:00:00 | 01:53:49 | 00:00:00 | |
| DJ2DS-15 | 2026-09-06 00:42:36 | 54.96558 | -0.39793 | 176° | 11km/h | 25790m | 5.7m/s | -51.8°C | 4.2% | 0hPa | 2.6V | 00:00:00 | 01:53:29 | 00:00:00 | |
| DJ2DS-15 | 2026-09-06 00:42:16 | 54.96581 | -0.39844 | 155° | 18km/h | 25675m | 6.1m/s | -51.2°C | 4.1% | 0hPa | 2.6V | 00:00:00 | 01:53:09 | 00:00:00 | |
| DJ2DS-15 | 2026-09-06 00:41:56 | 54.96665 | -0.39914 | 169° | 27km/h | 25557m | 6.2m/s | -50.9°C | 4.0% | 0hPa | 2.6V | 00:00:00 | 01:52:49 | 00:00:00 | |
| DJ2DS-15 | 2026-09-06 00:41:43 | 54.96739 | -0.39977 | 148° | 27km/h | 25480m | 6.9m/s | -50.8°C | 1.1% | -1.0hPa | 2.6V | 00:00:00 | 00:00:00 | 00:00:00 | |
| DJ2DS-15 | 2026-09-06 00:41:36 | 54.96786 | -0.40030 | 144° | 40km/h | 25437m | 5.6m/s | -50.8°C | 4.0% | 0hPa | 2.6V | 00:00:00 | 01:52:29 | 00:00:00 | |
| DJ2DS-15 | 2026-09-06 00:41:16 | 54.96905 | -0.40303 | 121° | 51km/h | 25316m | 6.4m/s | -51.1°C | 4.0% | 0hPa | 2.6V | 00:00:00 | 01:52:09 | 00:00:00 | |
| DJ2DS-15 | 2026-09-06 00:41:07 | 54.96955 | -0.40482 | 113° | 55km/h | 25264m | 6.9m/s | -51.3°C | 1.1% | -1.0hPa | 2.7V | 00:00:00 | 00:00:00 | 00:00:00 | |
| DJ2DS-15 | 2026-09-06 00:40:56 | 54.97000 | -0.40702 | 110° | 42km/h | 25202m | 6.5m/s | -51.7°C | 4.1% | 0hPa | 2.7V | 00:00:00 | 01:51:49 | 00:00:00 | |
| DJ2DS-15 | 2026-09-06 00:40:36 | 54.97030 | -0.41060 | 104° | 38km/h | 25089m | 4.5m/s | -52.3°C | 4.3% | 0hPa | 2.7V | 00:00:00 | 01:51:29 | 00:00:00 | |
| DJ2DS-15 | 2026-09-06 00:40:16 | 54.97019 | -0.41384 | 87° | 29km/h | 24981m | 4.8m/s | -52.0°C | 4.2% | 0hPa | 2.7V | 00:00:00 | 01:51:09 | 08:30:00 | |
| DJ2DS-15 | 2026-09-06 00:39:56 | 54.96978 | -0.41619 | 52° | 24km/h | 24874m | 4.6m/s | -51.7°C | 4.1% | 0hPa | 2.6V | 00:00:00 | 01:50:49 | 00:00:00 | |
| DJ2DS-15 | 2026-09-06 00:39:36 | 54.96915 | -0.41778 | 60° | 11km/h | 24763m | 5.1m/s | -52.0°C | 4.3% | 0hPa | 2.6V | 00:00:00 | 01:50:29 | 00:00:00 | |
| DJ2DS-15 | 2026-09-06 00:39:16 | 54.96883 | -0.41842 | 92° | 11km/h | 24653m | 5.1m/s | -51.5°C | 4.1% | 0hPa | 2.6V | 00:00:00 | 01:50:09 | 00:00:00 | |
| DJ2DS-15 | 2026-09-06 00:38:55 | 54.96871 | -0.41935 | 80° | 11km/h | 24536m | 4.8m/s | 0°C | 0% | 0hPa | 0V | 00:00:00 | 01:49:48 | 00:00:00 | |
| DJ2DS-15 | 2026-09-06 00:38:43 | 54.96885 | -0.41995 | 104° | 16km/h | 24462m | 5.2m/s | -51.1°C | 1.1% | -1.0hPa | 0V | 00:00:00 | 00:00:00 | 00:00:00 | |
| DJ2DS-15 | 2026-09-06 00:38:35 | 54.96892 | -0.42017 | 143° | 15km/h | 24421m | 6.0m/s | 0°C | 0% | 0hPa | 0V | 00:00:00 | 01:49:28 | 00:00:00 | |
| DJ2DS-15 | 2026-09-06 00:37:32 | 54.97132 | -0.42350 | 142° | 26km/h | 24044m | 6.8m/s | 0°C | 0% | 0hPa | 0V | 00:00:00 | 01:48:25 | 00:00:00 | |
| DJ2DS-15 | 2026-09-06 00:37:11 | 54.97199 | -0.42556 | 115° | 29km/h | 23910m | 7.3m/s | 0°C | 0% | 0hPa | 0V | 00:00:00 | 01:48:04 | 00:00:00 | |
| DJ2DS-15 | 2026-09-06 00:36:51 | 54.97229 | -0.42810 | 104° | 35km/h | 23782m | 6.1m/s | 0°C | 0% | 0hPa | 0V | 00:00:00 | 01:47:44 | 00:00:00 |